sensor_id;sensor_type;location;lat;lon;timestamp;pressure;altitude;pressure_sealevel;temperature;humidity
44872;BME280;30602;51.060;17.226;2023-09-19T00:02:56;100771.20;;;18.90;100.00
44872;BME280;30602;51.060;17.226;2023-09-19T00:06:55;100778.97;;;18.94;100.00
44872;BME280;30602;51.060;17.226;2023-09-19T00:10:54;100790.30;;;19.13;100.00
44872;BME280;30602;51.060;17.226;2023-09-19T00:14:39;100791.76;;;19.32;99.86
44872;BME280;30602;51.060;17.226;2023-09-19T00:18:07;100786.41;;;19.34;99.25
44872;BME280;30602;51.060;17.226;2023-09-19T00:21:50;100784.27;;;19.34;99.22
44872;BME280;30602;51.060;17.226;2023-09-19T00:25:28;100793.90;;;19.49;98.21
44872;BME280;30602;51.060;17.226;2023-09-19T00:29:41;100789.09;;;19.55;97.97
44872;BME280;30602;51.060;17.226;2023-09-19T00:37:05;100792.73;;;19.59;97.28
44872;BME280;30602;51.060;17.226;2023-09-19T00:41:04;100792.30;;;19.66;96.49
44872;BME280;30602;51.060;17.226;2023-09-19T00:44:50;100794.28;;;19.55;96.99
44872;BME280;30602;51.060;17.226;2023-09-19T00:48:40;100795.47;;;19.56;96.86
44872;BME280;30602;51.060;17.226;2023-09-19T00:53:46;100779.16;;;19.38;97.54
44872;BME280;30602;51.060;17.226;2023-09-19T00:57:10;100784.41;;;19.45;97.52
44872;BME280;30602;51.060;17.226;2023-09-19T01:00:54;100781.92;;;19.36;98.22
44872;BME280;30602;51.060;17.226;2023-09-19T01:08:42;100779.95;;;19.33;98.64
44872;BME280;30602;51.060;17.226;2023-09-19T01:13:28;100780.58;;;19.43;97.70
44872;BME280;30602;51.060;17.226;2023-09-19T01:17:25;100783.38;;;19.22;98.36
44872;BME280;30602;51.060;17.226;2023-09-19T01:32:29;100781.25;;;19.05;99.74
44872;BME280;30602;51.060;17.226;2023-09-19T01:35:52;100781.27;;;18.98;99.97
44872;BME280;30602;51.060;17.226;2023-09-19T01:43:48;100774.66;;;18.98;99.98
44872;BME280;30602;51.060;17.226;2023-09-19T01:55:40;100786.79;;;19.03;99.74
44872;BME280;30602;51.060;17.226;2023-09-19T01:59:28;100795.05;;;19.05;99.09
44872;BME280;30602;51.060;17.226;2023-09-19T02:03:05;100790.95;;;19.01;99.37
44872;BME280;30602;51.060;17.226;2023-09-19T02:07:03;100789.40;;;18.90;100.00
44872;BME280;30602;51.060;17.226;2023-09-19T02:10:46;100787.64;;;18.85;100.00
44872;BME280;30602;51.060;17.226;2023-09-19T02:14:22;100792.15;;;18.76;100.00
44872;BME280;30602;51.060;17.226;2023-09-19T02:18:39;100790.13;;;18.61;100.00
44872;BME280;30602;51.060;17.226;2023-09-19T02:26:37;100790.68;;;18.49;100.00
44872;BME280;30602;51.060;17.226;2023-09-19T02:30:22;100810.48;;;18.53;100.00
44872;BME280;30602;51.060;17.226;2023-09-19T02:34:00;100822.93;;;18.57;100.00
44872;BME280;30602;51.060;17.226;2023-09-19T02:38:29;100814.93;;;18.58;100.00
44872;BME280;30602;51.060;17.226;2023-09-19T02:41:52;100809.45;;;18.45;100.00
44872;BME280;30602;51.060;17.226;2023-09-19T02:45:16;100799.84;;;18.43;100.00
44872;BME280;30602;51.060;17.226;2023-09-19T02:49:10;100792.34;;;18.32;100.00
44872;BME280;30602;51.060;17.226;2023-09-19T02:52:47;100779.18;;;18.24;100.00
44872;BME280;30602;51.060;17.226;2023-09-19T02:56:11;100775.40;;;18.18;100.00
44872;BME280;30602;51.060;17.226;2023-09-19T02:59:38;100774.28;;;18.10;100.00
44872;BME280;30602;51.060;17.226;2023-09-19T03:03:17;100772.02;;;18.00;100.00
44872;BME280;30602;51.060;17.226;2023-09-19T03:06:42;100773.98;;;17.94;100.00
44872;BME280;30602;51.060;17.226;2023-09-19T03:10:27;100771.65;;;17.89;100.00
44872;BME280;30602;51.060;17.226;2023-09-19T03:14:01;100777.59;;;17.82;100.00
44872;BME280;30602;51.060;17.226;2023-09-19T03:17:50;100775.81;;;17.77;100.00
44872;BME280;30602;51.060;17.226;2023-09-19T03:21:28;100779.96;;;17.76;100.00
44872;BME280;30602;51.060;17.226;2023-09-19T03:25:12;100773.18;;;17.79;100.00
44872;BME280;30602;51.060;17.226;2023-09-19T03:29:05;100770.73;;;17.75;100.00
44872;BME280;30602;51.060;17.226;2023-09-19T03:32:55;100772.91;;;17.67;100.00
44872;BME280;30602;51.060;17.226;2023-09-19T03:36:31;100770.48;;;17.72;100.00
44872;BME280;30602;51.060;17.226;2023-09-19T03:40:26;100775.34;;;17.71;100.00
44872;BME280;30602;51.060;17.226;2023-09-19T03:43:47;100777.80;;;17.70;100.00
44872;BME280;30602;51.060;17.226;2023-09-19T03:47:29;100785.12;;;17.71;100.00
44872;BME280;30602;51.060;17.226;2023-09-19T03:51:48;100788.61;;;17.72;100.00
44872;BME280;30602;51.060;17.226;2023-09-19T03:55:31;100793.55;;;17.71;100.00
44872;BME280;30602;51.060;17.226;2023-09-19T03:58:53;100788.38;;;17.69;100.00
44872;BME280;30602;51.060;17.226;2023-09-19T04:02:19;100787.27;;;17.67;100.00
44872;BME280;30602;51.060;17.226;2023-09-19T04:06:06;100786.80;;;17.62;100.00
44872;BME280;30602;51.060;17.226;2023-09-19T04:09:51;100791.73;;;17.67;100.00
44872;BME280;30602;51.060;17.226;2023-09-19T04:13:29;100793.89;;;17.70;100.00
44872;BME280;30602;51.060;17.226;2023-09-19T04:17:06;100796.51;;;17.64;100.00
44872;BME280;30602;51.060;17.226;2023-09-19T04:20:33;100794.75;;;17.57;100.00
44872;BME280;30602;51.060;17.226;2023-09-19T04:23:59;100796.24;;;17.57;100.00
44872;BME280;30602;51.060;17.226;2023-09-19T04:27:25;100802.38;;;17.57;100.00
44872;BME280;30602;51.060;17.226;2023-09-19T04:31:01;100797.84;;;17.58;100.00
44872;BME280;30602;51.060;17.226;2023-09-19T04:34:41;100792.23;;;17.53;100.00
44872;BME280;30602;51.060;17.226;2023-09-19T04:38:08;100786.03;;;17.50;100.00
44872;BME280;30602;51.060;17.226;2023-09-19T04:41:49;100787.80;;;17.34;100.00
44872;BME280;30602;51.060;17.226;2023-09-19T04:45:56;100795.81;;;17.32;100.00
44872;BME280;30602;51.060;17.226;2023-09-19T04:49:50;100791.80;;;17.28;100.00
44872;BME280;30602;51.060;17.226;2023-09-19T04:57:38;100801.48;;;17.36;100.00
44872;BME280;30602;51.060;17.226;2023-09-19T05:01:22;100801.86;;;17.40;100.00
44872;BME280;30602;51.060;17.226;2023-09-19T05:05:08;100806.28;;;17.46;100.00
44872;BME280;30602;51.060;17.226;2023-09-19T05:08:39;100810.54;;;17.49;100.00
44872;BME280;30602;51.060;17.226;2023-09-19T05:12:07;100810.09;;;17.50;100.00
44872;BME280;30602;51.060;17.226;2023-09-19T05:16:19;100811.13;;;17.48;100.00
44872;BME280;30602;51.060;17.226;2023-09-19T05:19:43;100813.09;;;17.48;100.00
44872;BME280;30602;51.060;17.226;2023-09-19T05:23:42;100819.89;;;17.45;100.00
44872;BME280;30602;51.060;17.226;2023-09-19T05:27:36;100821.82;;;17.45;100.00
44872;BME280;30602;51.060;17.226;2023-09-19T05:31:34;100820.01;;;17.42;100.00
44872;BME280;30602;51.060;17.226;2023-09-19T05:35:12;100825.92;;;17.41;100.00
44872;BME280;30602;51.060;17.226;2023-09-19T05:39:40;100837.20;;;17.40;100.00
44872;BME280;30602;51.060;17.226;2023-09-19T05:43:28;100841.88;;;17.37;100.00
44872;BME280;30602;51.060;17.226;2023-09-19T05:47:41;100846.21;;;17.43;100.00
44872;BME280;30602;51.060;17.226;2023-09-19T05:51:56;100851.35;;;17.41;100.00
44872;BME280;30602;51.060;17.226;2023-09-19T05:56:24;100861.03;;;17.50;100.00
44872;BME280;30602;51.060;17.226;2023-09-19T06:04:26;100868.50;;;17.62;100.00
44872;BME280;30602;51.060;17.226;2023-09-19T06:09:15;100864.82;;;17.63;100.00
44872;BME280;30602;51.060;17.226;2023-09-19T06:13:13;100841.88;;;17.54;100.00
44872;BME280;30602;51.060;17.226;2023-09-19T06:16:52;100865.19;;;17.74;100.00
44872;BME280;30602;51.060;17.226;2023-09-19T06:20:39;100872.65;;;17.82;100.00
44872;BME280;30602;51.060;17.226;2023-09-19T06:24:48;100877.73;;;17.90;100.00
44872;BME280;30602;51.060;17.226;2023-09-19T06:28:35;100885.41;;;17.97;100.00
44872;BME280;30602;51.060;17.226;2023-09-19T06:32:59;100886.41;;;18.08;100.00
44872;BME280;30602;51.060;17.226;2023-09-19T06:36:22;100892.56;;;18.25;100.00
44872;BME280;30602;51.060;17.226;2023-09-19T06:40:08;100895.61;;;18.23;100.00
44872;BME280;30602;51.060;17.226;2023-09-19T06:44:10;100902.33;;;18.32;100.00
44872;BME280;30602;51.060;17.226;2023-09-19T06:48:11;100908.37;;;18.35;100.00
44872;BME280;30602;51.060;17.226;2023-09-19T06:53:09;100913.87;;;18.29;100.00
44872;BME280;30602;51.060;17.226;2023-09-19T06:57:20;100913.70;;;18.34;100.00
44872;BME280;30602;51.060;17.226;2023-09-19T07:05:48;100926.70;;;18.42;100.00
44872;BME280;30602;51.060;17.226;2023-09-19T07:10:06;100938.18;;;18.47;100.00
44872;BME280;30602;51.060;17.226;2023-09-19T07:18:03;100946.54;;;18.63;100.00
44872;BME280;30602;51.060;17.226;2023-09-19T07:21:58;100942.44;;;18.59;100.00
44872;BME280;30602;51.060;17.226;2023-09-19T07:25:59;100944.49;;;18.71;100.00
44872;BME280;30602;51.060;17.226;2023-09-19T07:29:52;100953.16;;;18.80;100.00
44872;BME280;30602;51.060;17.226;2023-09-19T07:33:37;100959.41;;;18.86;100.00
44872;BME280;30602;51.060;17.226;2023-09-19T07:37:58;100965.27;;;18.79;100.00
44872;BME280;30602;51.060;17.226;2023-09-19T07:41:43;100965.96;;;18.71;100.00
44872;BME280;30602;51.060;17.226;2023-09-19T07:45:40;100969.72;;;18.63;100.00
44872;BME280;30602;51.060;17.226;2023-09-19T07:49:49;100973.63;;;18.63;100.00
44872;BME280;30602;51.060;17.226;2023-09-19T07:54:32;100978.77;;;18.75;100.00
44872;BME280;30602;51.060;17.226;2023-09-19T07:58:25;100959.10;;;18.92;100.00
44872;BME280;30602;51.060;17.226;2023-09-19T08:02:38;100982.66;;;19.12;100.00
44872;BME280;30602;51.060;17.226;2023-09-19T08:10:59;100991.20;;;19.39;97.96
44872;BME280;30602;51.060;17.226;2023-09-19T08:15:20;100992.56;;;19.28;97.43
44872;BME280;30602;51.060;17.226;2023-09-19T08:18:53;100996.67;;;19.15;99.18
44872;BME280;30602;51.060;17.226;2023-09-19T08:22:37;101009.55;;;18.98;97.18
44872;BME280;30602;51.060;17.226;2023-09-19T08:26:33;101005.32;;;18.95;96.88
44872;BME280;30602;51.060;17.226;2023-09-19T08:29:58;101006.73;;;18.86;95.89
44872;BME280;30602;51.060;17.226;2023-09-19T08:33:24;101007.52;;;18.93;96.10
44872;BME280;30602;51.060;17.226;2023-09-19T08:37:14;101014.80;;;19.06;97.49
44872;BME280;30602;51.060;17.226;2023-09-19T08:40:43;101018.36;;;19.08;96.75
44872;BME280;30602;51.060;17.226;2023-09-19T08:48:28;101023.34;;;19.33;95.67
44872;BME280;30602;51.060;17.226;2023-09-19T08:52:37;101027.77;;;19.23;94.16
44872;BME280;30602;51.060;17.226;2023-09-19T08:56:29;101023.03;;;19.35;94.36
44872;BME280;30602;51.060;17.226;2023-09-19T09:00:14;101028.36;;;19.22;94.12
44872;BME280;30602;51.060;17.226;2023-09-19T09:04:41;101030.59;;;19.16;93.54
44872;BME280;30602;51.060;17.226;2023-09-19T09:08:09;101043.42;;;19.15;94.73
44872;BME280;30602;51.060;17.226;2023-09-19T09:12:07;101041.91;;;19.05;92.90
44872;BME280;30602;51.060;17.226;2023-09-19T09:16:07;101044.89;;;19.20;93.24
44872;BME280;30602;51.060;17.226;2023-09-19T09:19:33;101045.48;;;19.30;93.41
44872;BME280;30602;51.060;17.226;2023-09-19T09:23:15;101050.52;;;19.43;91.49
44872;BME280;30602;51.060;17.226;2023-09-19T09:27:07;101057.40;;;19.60;90.22
44872;BME280;30602;51.060;17.226;2023-09-19T09:30:51;101059.34;;;19.79;90.10
44872;BME280;30602;51.060;17.226;2023-09-19T09:35:02;101067.08;;;19.99;89.80
44872;BME280;30602;51.060;17.226;2023-09-19T09:39:02;101067.16;;;19.94;88.84
44872;BME280;30602;51.060;17.226;2023-09-19T09:42:38;101073.59;;;19.95;89.24
44872;BME280;30602;51.060;17.226;2023-09-19T09:46:36;101076.95;;;19.85;87.55
44872;BME280;30602;51.060;17.226;2023-09-19T09:50:25;101081.99;;;19.83;88.93
44872;BME280;30602;51.060;17.226;2023-09-19T09:55:01;101081.73;;;20.05;88.51
44872;BME280;30602;51.060;17.226;2023-09-19T09:58:58;101083.51;;;19.99;85.66
44872;BME280;30602;51.060;17.226;2023-09-19T10:02:28;101088.05;;;19.93;85.35
44872;BME280;30602;51.060;17.226;2023-09-19T10:06:17;101088.50;;;19.88;86.30
44872;BME280;30602;51.060;17.226;2023-09-19T10:09:52;101101.02;;;19.90;88.38
44872;BME280;30602;51.060;17.226;2023-09-19T10:13:43;101101.09;;;19.94;88.16
44872;BME280;30602;51.060;17.226;2023-09-19T10:22:08;101104.24;;;20.01;87.40
44872;BME280;30602;51.060;17.226;2023-09-19T10:25:37;101104.84;;;19.99;87.70
44872;BME280;30602;51.060;17.226;2023-09-19T10:29:40;101092.19;;;19.91;88.10
44872;BME280;30602;51.060;17.226;2023-09-19T10:33:16;101114.41;;;20.15;85.66
44872;BME280;30602;51.060;17.226;2023-09-19T10:36:54;101111.06;;;20.26;85.38
44872;BME280;30602;51.060;17.226;2023-09-19T10:40:35;101113.58;;;20.46;83.84
44872;BME280;30602;51.060;17.226;2023-09-19T10:48:19;101120.05;;;20.49;82.63
44872;BME280;30602;51.060;17.226;2023-09-19T10:52:22;101129.55;;;20.41;81.12
44872;BME280;30602;51.060;17.226;2023-09-19T10:56:27;101129.22;;;20.24;81.62
44872;BME280;30602;51.060;17.226;2023-09-19T11:00:27;101132.98;;;20.00;80.60
44872;BME280;30602;51.060;17.226;2023-09-19T11:04:44;101130.64;;;19.98;80.88
44872;BME280;30602;51.060;17.226;2023-09-19T11:08:29;101124.63;;;20.12;80.62
44872;BME280;30602;51.060;17.226;2023-09-19T11:33:29;101124.54;;;21.21;67.33
44872;BME280;30602;51.060;17.226;2023-09-19T11:41:41;101125.64;;;21.16;69.35
44872;BME280;30602;51.060;17.226;2023-09-19T11:45:05;101124.63;;;21.36;69.57
44872;BME280;30602;51.060;17.226;2023-09-19T11:48:50;101128.11;;;21.23;68.15
44872;BME280;30602;51.060;17.226;2023-09-19T11:52:22;101124.95;;;21.12;68.12
44872;BME280;30602;51.060;17.226;2023-09-19T11:56:18;101125.91;;;21.14;66.38
44872;BME280;30602;51.060;17.226;2023-09-19T12:00:18;101130.52;;;21.26;64.49
44872;BME280;30602;51.060;17.226;2023-09-19T12:03:46;101138.79;;;21.12;62.64
44872;BME280;30602;51.060;17.226;2023-09-19T12:08:18;101148.96;;;21.01;61.26
44872;BME280;30602;51.060;17.226;2023-09-19T12:12:56;101147.54;;;21.04;62.43
44872;BME280;30602;51.060;17.226;2023-09-19T12:17:23;101141.73;;;21.06;65.00
44872;BME280;30602;51.060;17.226;2023-09-19T12:25:41;101140.27;;;21.10;62.59
44872;BME280;30602;51.060;17.226;2023-09-19T12:29:29;101139.72;;;21.21;61.71
44872;BME280;30602;51.060;17.226;2023-09-19T12:33:41;101142.09;;;21.28;60.60
44872;BME280;30602;51.060;17.226;2023-09-19T12:37:18;101141.66;;;21.23;59.57
44872;BME280;30602;51.060;17.226;2023-09-19T12:41:52;101133.20;;;21.24;59.86
44872;BME280;30602;51.060;17.226;2023-09-19T12:45:50;101136.23;;;21.39;59.99
44872;BME280;30602;51.060;17.226;2023-09-19T12:54:45;101133.70;;;21.79;60.62
44872;BME280;30602;51.060;17.226;2023-09-19T12:59:29;101129.64;;;22.04;59.06
44872;BME280;30602;51.060;17.226;2023-09-19T13:06:57;101121.54;;;22.52;58.50
44872;BME280;30602;51.060;17.226;2023-09-19T13:14:26;101116.12;;;22.34;54.34
44872;BME280;30602;51.060;17.226;2023-09-19T13:19:07;101103.23;;;22.32;54.96
44872;BME280;30602;51.060;17.226;2023-09-19T13:22:47;101097.84;;;22.36;54.46
44872;BME280;30602;51.060;17.226;2023-09-19T13:26:41;101092.97;;;22.34;53.11
44872;BME280;30602;51.060;17.226;2023-09-19T13:30:37;101096.30;;;22.41;52.19
44872;BME280;30602;51.060;17.226;2023-09-19T13:34:26;101091.90;;;22.43;52.39
44872;BME280;30602;51.060;17.226;2023-09-19T13:38:04;101094.29;;;22.44;51.10
44872;BME280;30602;51.060;17.226;2023-09-19T13:41:30;101092.25;;;22.30;51.65
44872;BME280;30602;51.060;17.226;2023-09-19T13:45:35;101090.33;;;22.28;53.59
44872;BME280;30602;51.060;17.226;2023-09-19T13:48:54;101096.06;;;22.24;52.69
44872;BME280;30602;51.060;17.226;2023-09-19T13:57:37;101089.09;;;22.39;52.55
44872;BME280;30602;51.060;17.226;2023-09-19T14:01:42;101091.90;;;22.54;54.92
44872;BME280;30602;51.060;17.226;2023-09-19T14:05:39;101084.31;;;22.55;53.18
44872;BME280;30602;51.060;17.226;2023-09-19T14:09:20;101080.41;;;22.70;54.17
44872;BME280;30602;51.060;17.226;2023-09-19T14:13:14;101079.97;;;22.70;52.53
44872;BME280;30602;51.060;17.226;2023-09-19T14:20:44;101081.70;;;22.50;53.58
44872;BME280;30602;51.060;17.226;2023-09-19T14:24:26;101081.80;;;22.35;54.48
44872;BME280;30602;51.060;17.226;2023-09-19T14:28:37;101078.98;;;22.17;54.91
44872;BME280;30602;51.060;17.226;2023-09-19T14:32:17;101080.98;;;22.07;55.87
44872;BME280;30602;51.060;17.226;2023-09-19T14:36:07;101084.85;;;22.06;57.17
44872;BME280;30602;51.060;17.226;2023-09-19T14:39:43;101086.95;;;22.23;56.78
44872;BME280;30602;51.060;17.226;2023-09-19T14:43:09;101089.77;;;22.03;55.15
44872;BME280;30602;51.060;17.226;2023-09-19T14:46:53;101090.79;;;22.05;55.14
44872;BME280;30602;51.060;17.226;2023-09-19T14:51:05;101094.02;;;21.99;55.50
44872;BME280;30602;51.060;17.226;2023-09-19T14:54:32;101091.56;;;22.01;56.20
44872;BME280;30602;51.060;17.226;2023-09-19T14:58:12;101088.98;;;21.94;56.15
44872;BME280;30602;51.060;17.226;2023-09-19T15:01:37;101090.94;;;21.78;56.61
44872;BME280;30602;51.060;17.226;2023-09-19T15:05:17;101087.39;;;21.70;57.96
44872;BME280;30602;51.060;17.226;2023-09-19T15:08:52;101086.84;;;21.61;57.94
44872;BME280;30602;51.060;17.226;2023-09-19T15:12:44;101086.11;;;21.57;58.32
44872;BME280;30602;51.060;17.226;2023-09-19T15:16:17;101091.35;;;21.57;59.18
44872;BME280;30602;51.060;17.226;2023-09-19T15:20:24;101092.34;;;21.51;58.40
44872;BME280;30602;51.060;17.226;2023-09-19T15:24:01;101091.63;;;21.63;58.71
44872;BME280;30602;51.060;17.226;2023-09-19T15:27:30;101094.55;;;21.76;57.82
44872;BME280;30602;51.060;17.226;2023-09-19T15:31:30;101094.39;;;21.64;57.68
44872;BME280;30602;51.060;17.226;2023-09-19T15:34:51;101092.52;;;21.67;58.29
44872;BME280;30602;51.060;17.226;2023-09-19T15:38:57;101095.20;;;21.46;59.49
44872;BME280;30602;51.060;17.226;2023-09-19T15:42:20;101099.46;;;21.19;63.30
44872;BME280;30602;51.060;17.226;2023-09-19T15:45:45;101102.51;;;21.07;61.26
44872;BME280;30602;51.060;17.226;2023-09-19T15:49:19;101102.91;;;20.93;62.82
44872;BME280;30602;51.060;17.226;2023-09-19T15:52:41;101105.13;;;20.80;66.51
44872;BME280;30602;51.060;17.226;2023-09-19T15:56:56;101106.28;;;20.91;62.54
44872;BME280;30602;51.060;17.226;2023-09-19T16:00:40;101108.63;;;20.93;62.67
44872;BME280;30602;51.060;17.226;2023-09-19T16:05:10;101107.84;;;21.00;62.66
44872;BME280;30602;51.060;17.226;2023-09-19T16:09:14;101116.34;;;20.80;65.54
44872;BME280;30602;51.060;17.226;2023-09-19T16:13:07;101123.73;;;20.66;64.86
44872;BME280;30602;51.060;17.226;2023-09-19T16:17:09;101124.15;;;20.48;70.42
44872;BME280;30602;51.060;17.226;2023-09-19T16:21:33;101127.08;;;20.19;72.04
44872;BME280;30602;51.060;17.226;2023-09-19T16:26:05;101126.48;;;20.13;72.91
44872;BME280;30602;51.060;17.226;2023-09-19T16:29:46;101123.37;;;19.65;75.21
44872;BME280;30602;51.060;17.226;2023-09-19T16:34:11;101127.14;;;19.60;72.00
44872;BME280;30602;51.060;17.226;2023-09-19T16:37:33;101133.80;;;19.44;75.99
44872;BME280;30602;51.060;17.226;2023-09-19T16:41:27;101142.69;;;19.20;78.70
44872;BME280;30602;51.060;17.226;2023-09-19T16:44:48;101140.23;;;18.93;80.96
44872;BME280;30602;51.060;17.226;2023-09-19T16:48:18;101148.38;;;18.74;84.14
44872;BME280;30602;51.060;17.226;2023-09-19T16:51:37;101151.22;;;18.59;85.56
44872;BME280;30602;51.060;17.226;2023-09-19T16:55:54;101154.04;;;18.37;88.28
44872;BME280;30602;51.060;17.226;2023-09-19T16:59:15;101161.30;;;18.16;89.23
44872;BME280;30602;51.060;17.226;2023-09-19T17:02:46;101165.41;;;17.86;90.33
44872;BME280;30602;51.060;17.226;2023-09-19T17:06:12;101165.74;;;17.68;90.92
44872;BME280;30602;51.060;17.226;2023-09-19T17:10:10;101172.50;;;17.65;91.40
44872;BME280;30602;51.060;17.226;2023-09-19T17:13:46;101173.37;;;17.56;92.27
44872;BME280;30602;51.060;17.226;2023-09-19T17:17:11;101177.02;;;17.31;92.52
44872;BME280;30602;51.060;17.226;2023-09-19T17:20:52;101181.20;;;17.21;93.91
44872;BME280;30602;51.060;17.226;2023-09-19T17:24:38;101181.51;;;17.07;94.15
44872;BME280;30602;51.060;17.226;2023-09-19T17:27:59;101181.83;;;16.94;94.84
44872;BME280;30602;51.060;17.226;2023-09-19T17:32:36;101185.20;;;16.85;96.00
44872;BME280;30602;51.060;17.226;2023-09-19T17:37:24;101188.25;;;16.83;96.86
44872;BME280;30602;51.060;17.226;2023-09-19T17:41:03;101193.52;;;16.70;97.72
44872;BME280;30602;51.060;17.226;2023-09-19T17:44:57;101200.02;;;16.55;99.06
44872;BME280;30602;51.060;17.226;2023-09-19T17:52:42;101208.71;;;16.41;98.92
44872;BME280;30602;51.060;17.226;2023-09-19T17:56:17;101211.16;;;16.30;99.94
44872;BME280;30602;51.060;17.226;2023-09-19T17:59:39;101218.53;;;16.27;100.00
44872;BME280;30602;51.060;17.226;2023-09-19T18:03:04;101222.34;;;16.22;100.00
44872;BME280;30602;51.060;17.226;2023-09-19T18:07:29;101228.35;;;16.09;100.00
44872;BME280;30602;51.060;17.226;2023-09-19T18:11:15;101227.34;;;16.06;100.00
44872;BME280;30602;51.060;17.226;2023-09-19T18:15:02;101234.50;;;15.91;100.00
44872;BME280;30602;51.060;17.226;2023-09-19T18:18:38;101235.97;;;15.82;100.00
44872;BME280;30602;51.060;17.226;2023-09-19T18:22:25;101241.27;;;15.76;100.00
44872;BME280;30602;51.060;17.226;2023-09-19T18:26:08;101249.91;;;15.63;100.00
44872;BME280;30602;51.060;17.226;2023-09-19T18:29:32;101253.74;;;15.56;100.00
44872;BME280;30602;51.060;17.226;2023-09-19T18:33:05;101250.90;;;15.59;100.00
44872;BME280;30602;51.060;17.226;2023-09-19T18:36:43;101252.05;;;15.47;100.00
44872;BME280;30602;51.060;17.226;2023-09-19T18:40:43;101254.23;;;15.37;100.00
44872;BME280;30602;51.060;17.226;2023-09-19T18:44:20;101252.06;;;15.29;100.00
44872;BME280;30602;51.060;17.226;2023-09-19T18:47:41;101251.98;;;15.31;100.00
44872;BME280;30602;51.060;17.226;2023-09-19T18:51:24;101254.71;;;15.23;100.00
44872;BME280;30602;51.060;17.226;2023-09-19T18:54:44;101256.27;;;15.20;100.00
44872;BME280;30602;51.060;17.226;2023-09-19T18:58:08;101256.79;;;15.28;100.00
44872;BME280;30602;51.060;17.226;2023-09-19T19:02:36;101262.48;;;15.16;100.00
44872;BME280;30602;51.060;17.226;2023-09-19T19:06:05;101259.95;;;15.08;100.00
44872;BME280;30602;51.060;17.226;2023-09-19T19:09:35;101263.80;;;14.90;100.00
44872;BME280;30602;51.060;17.226;2023-09-19T19:12:57;101268.77;;;14.89;100.00
44872;BME280;30602;51.060;17.226;2023-09-19T19:16:31;101266.56;;;14.87;100.00
44872;BME280;30602;51.060;17.226;2023-09-19T19:20:29;101273.16;;;14.82;100.00
44872;BME280;30602;51.060;17.226;2023-09-19T19:23:51;101278.10;;;14.69;100.00
44872;BME280;30602;51.060;17.226;2023-09-19T19:27:30;101275.07;;;14.55;100.00
44872;BME280;30602;51.060;17.226;2023-09-19T19:31:19;101277.80;;;14.63;100.00
44872;BME280;30602;51.060;17.226;2023-09-19T19:35:30;101273.42;;;14.62;100.00
44872;BME280;30602;51.060;17.226;2023-09-19T19:39:52;101284.05;;;14.54;100.00
44872;BME280;30602;51.060;17.226;2023-09-19T19:43:23;101293.32;;;14.49;100.00
44872;BME280;30602;51.060;17.226;2023-09-19T19:46:44;101294.95;;;14.40;100.00
44872;BME280;30602;51.060;17.226;2023-09-19T19:50:24;101295.02;;;14.27;100.00
44872;BME280;30602;51.060;17.226;2023-09-19T19:53:45;101298.82;;;14.03;100.00
44872;BME280;30602;51.060;17.226;2023-09-19T19:58:11;101300.46;;;13.83;100.00
44872;BME280;30602;51.060;17.226;2023-09-19T20:01:57;101302.03;;;13.90;100.00
44872;BME280;30602;51.060;17.226;2023-09-19T20:05:39;101300.97;;;13.71;100.00
44872;BME280;30602;51.060;17.226;2023-09-19T20:09:06;101302.68;;;13.76;100.00
44872;BME280;30602;51.060;17.226;2023-09-19T20:12:28;101301.96;;;13.83;100.00
44872;BME280;30602;51.060;17.226;2023-09-19T20:15:56;101300.83;;;13.72;100.00
44872;BME280;30602;51.060;17.226;2023-09-19T20:19:19;101301.48;;;13.66;100.00
44872;BME280;30602;51.060;17.226;2023-09-19T20:22:45;101305.36;;;13.56;100.00
44872;BME280;30602;51.060;17.226;2023-09-19T20:26:41;101308.94;;;13.30;100.00
44872;BME280;30602;51.060;17.226;2023-09-19T20:31:09;101311.69;;;13.30;100.00
44872;BME280;30602;51.060;17.226;2023-09-19T20:35:17;101300.14;;;13.24;100.00
44872;BME280;30602;51.060;17.226;2023-09-19T20:39:24;101311.76;;;13.44;100.00
44872;BME280;30602;51.060;17.226;2023-09-19T20:43:40;101319.00;;;13.10;100.00
44872;BME280;30602;51.060;17.226;2023-09-19T20:47:17;101312.35;;;13.07;100.00
44872;BME280;30602;51.060;17.226;2023-09-19T20:50:37;101318.38;;;12.81;100.00
44872;BME280;30602;51.060;17.226;2023-09-19T20:54:20;101318.55;;;12.77;100.00
44872;BME280;30602;51.060;17.226;2023-09-19T20:57:42;101324.04;;;12.82;100.00
44872;BME280;30602;51.060;17.226;2023-09-19T21:01:36;101327.25;;;12.89;100.00
44872;BME280;30602;51.060;17.226;2023-09-19T21:05:38;101336.45;;;12.70;100.00
44872;BME280;30602;51.060;17.226;2023-09-19T21:09:22;101336.16;;;12.84;100.00
44872;BME280;30602;51.060;17.226;2023-09-19T21:12:43;101340.16;;;12.94;100.00
44872;BME280;30602;51.060;17.226;2023-09-19T21:16:24;101338.82;;;12.82;100.00
44872;BME280;30602;51.060;17.226;2023-09-19T21:20:12;101342.99;;;12.65;100.00
44872;BME280;30602;51.060;17.226;2023-09-19T21:24:32;101346.80;;;12.63;100.00
44872;BME280;30602;51.060;17.226;2023-09-19T21:27:55;101344.61;;;12.66;100.00
44872;BME280;30602;51.060;17.226;2023-09-19T21:31:19;101347.91;;;12.54;100.00
44872;BME280;30602;51.060;17.226;2023-09-19T21:35:57;101336.01;;;12.52;100.00
44872;BME280;30602;51.060;17.226;2023-09-19T21:39:49;101351.32;;;12.46;100.00